sensor_id;sensor_type;location;lat;lon;timestamp;temperature;humidity
7216;DHT22;3649;48.798;9.798;2023-01-20T00:01:37;5.10;99.90
7216;DHT22;3649;48.798;9.798;2023-01-20T00:04:04;5.10;99.90
7216;DHT22;3649;48.798;9.798;2023-01-20T00:06:31;5.00;99.90
7216;DHT22;3649;48.798;9.798;2023-01-20T00:09:00;5.10;99.90
7216;DHT22;3649;48.798;9.798;2023-01-20T00:11:27;5.10;99.90
7216;DHT22;3649;48.798;9.798;2023-01-20T00:13:57;5.20;99.90
7216;DHT22;3649;48.798;9.798;2023-01-20T00:16:24;5.20;99.90
7216;DHT22;3649;48.798;9.798;2023-01-20T00:18:52;5.20;99.90
7216;DHT22;3649;48.798;9.798;2023-01-20T00:21:19;5.20;99.90
7216;DHT22;3649;48.798;9.798;2023-01-20T00:23:47;5.20;99.90
7216;DHT22;3649;48.798;9.798;2023-01-20T00:26:19;5.20;99.90
7216;DHT22;3649;48.798;9.798;2023-01-20T00:28:46;5.20;99.90
7216;DHT22;3649;48.798;9.798;2023-01-20T00:31:25;5.20;99.90
7216;DHT22;3649;48.798;9.798;2023-01-20T00:33:55;5.20;99.90
7216;DHT22;3649;48.798;9.798;2023-01-20T00:36:23;5.20;99.90
7216;DHT22;3649;48.798;9.798;2023-01-20T00:38:50;5.20;99.90
7216;DHT22;3649;48.798;9.798;2023-01-20T00:41:23;5.20;99.90
7216;DHT22;3649;48.798;9.798;2023-01-20T00:43:50;5.20;99.90
7216;DHT22;3649;48.798;9.798;2023-01-20T00:46:17;5.20;99.90
7216;DHT22;3649;48.798;9.798;2023-01-20T00:48:43;5.20;99.90
7216;DHT22;3649;48.798;9.798;2023-01-20T00:51:10;5.20;99.90
7216;DHT22;3649;48.798;9.798;2023-01-20T00:53:37;5.20;99.90
7216;DHT22;3649;48.798;9.798;2023-01-20T00:56:05;5.20;99.90
7216;DHT22;3649;48.798;9.798;2023-01-20T00:58:32;5.20;99.90
7216;DHT22;3649;48.798;9.798;2023-01-20T01:00:59;5.20;99.90
7216;DHT22;3649;48.798;9.798;2023-01-20T01:03:27;5.20;99.90
7216;DHT22;3649;48.798;9.798;2023-01-20T01:06:12;5.20;99.90
7216;DHT22;3649;48.798;9.798;2023-01-20T01:08:41;5.20;99.90
7216;DHT22;3649;48.798;9.798;2023-01-20T01:11:08;5.40;99.90
7216;DHT22;3649;48.798;9.798;2023-01-20T01:13:36;5.30;99.90
7216;DHT22;3649;48.798;9.798;2023-01-20T01:16:08;5.20;99.90
7216;DHT22;3649;48.798;9.798;2023-01-20T01:18:35;5.30;99.90
7216;DHT22;3649;48.798;9.798;2023-01-20T01:21:10;5.30;99.90
7216;DHT22;3649;48.798;9.798;2023-01-20T01:23:37;5.20;99.90
7216;DHT22;3649;48.798;9.798;2023-01-20T01:26:04;5.30;99.90
7216;DHT22;3649;48.798;9.798;2023-01-20T01:28:31;5.30;99.90
7216;DHT22;3649;48.798;9.798;2023-01-20T01:31:03;5.20;99.90
7216;DHT22;3649;48.798;9.798;2023-01-20T01:33:30;5.30;99.90
7216;DHT22;3649;48.798;9.798;2023-01-20T01:35:58;5.20;99.90
7216;DHT22;3649;48.798;9.798;2023-01-20T01:38:26;5.20;99.90
7216;DHT22;3649;48.798;9.798;2023-01-20T01:40:54;5.20;99.90
7216;DHT22;3649;48.798;9.798;2023-01-20T01:43:27;5.20;99.90
7216;DHT22;3649;48.798;9.798;2023-01-20T01:45:54;5.20;99.90
7216;DHT22;3649;48.798;9.798;2023-01-20T01:53:45;5.10;99.90
7216;DHT22;3649;48.798;9.798;2023-01-20T01:56:13;5.10;99.90
7216;DHT22;3649;48.798;9.798;2023-01-20T01:58:44;5.20;99.90
7216;DHT22;3649;48.798;9.798;2023-01-20T02:01:12;5.20;99.90
7216;DHT22;3649;48.798;9.798;2023-01-20T02:03:46;5.20;99.90
7216;DHT22;3649;48.798;9.798;2023-01-20T02:06:17;5.20;99.90
7216;DHT22;3649;48.798;9.798;2023-01-20T02:08:45;5.30;99.90
7216;DHT22;3649;48.798;9.798;2023-01-20T02:11:12;5.20;99.90
7216;DHT22;3649;48.798;9.798;2023-01-20T02:13:39;5.30;99.90
7216;DHT22;3649;48.798;9.798;2023-01-20T02:16:16;5.20;99.90
7216;DHT22;3649;48.798;9.798;2023-01-20T02:27:01;5.00;99.90
7216;DHT22;3649;48.798;9.798;2023-01-20T02:35:33;5.00;99.90
7216;DHT22;3649;48.798;9.798;2023-01-20T02:43:25;5.10;99.90
7216;DHT22;3649;48.798;9.798;2023-01-20T02:46:06;5.20;99.90
7216;DHT22;3649;48.798;9.798;2023-01-20T02:51:12;5.20;99.90
7216;DHT22;3649;48.798;9.798;2023-01-20T02:53:48;5.00;99.90
7216;DHT22;3649;48.798;9.798;2023-01-20T02:56:18;5.00;99.90
7216;DHT22;3649;48.798;9.798;2023-01-20T02:58:53;5.00;99.90
7216;DHT22;3649;48.798;9.798;2023-01-20T03:02:09;5.10;99.90
7216;DHT22;3649;48.798;9.798;2023-01-20T03:04:18;5.10;99.90
7216;DHT22;3649;48.798;9.798;2023-01-20T03:06:50;5.10;99.90
7216;DHT22;3649;48.798;9.798;2023-01-20T03:09:20;5.20;99.90
7216;DHT22;3649;48.798;9.798;2023-01-20T03:11:53;5.20;99.90
7216;DHT22;3649;48.798;9.798;2023-01-20T03:14:22;5.20;99.90
7216;DHT22;3649;48.798;9.798;2023-01-20T03:16:49;5.20;99.90
7216;DHT22;3649;48.798;9.798;2023-01-20T03:19:17;5.20;99.90
7216;DHT22;3649;48.798;9.798;2023-01-20T03:21:46;5.20;99.90
7216;DHT22;3649;48.798;9.798;2023-01-20T03:24:16;5.10;99.90
7216;DHT22;3649;48.798;9.798;2023-01-20T03:26:43;5.10;99.90
7216;DHT22;3649;48.798;9.798;2023-01-20T03:29:10;5.00;99.90
7216;DHT22;3649;48.798;9.798;2023-01-20T03:31:54;5.00;99.90
7216;DHT22;3649;48.798;9.798;2023-01-20T03:34:24;5.10;99.90
7216;DHT22;3649;48.798;9.798;2023-01-20T03:36:53;5.10;99.90
7216;DHT22;3649;48.798;9.798;2023-01-20T03:39:25;5.20;99.90
7216;DHT22;3649;48.798;9.798;2023-01-20T03:47:39;5.10;99.90
7216;DHT22;3649;48.798;9.798;2023-01-20T03:50:22;5.20;99.90
7216;DHT22;3649;48.798;9.798;2023-01-20T03:53:06;5.20;99.90
7216;DHT22;3649;48.798;9.798;2023-01-20T03:55:44;5.40;99.90
7216;DHT22;3649;48.798;9.798;2023-01-20T03:58:15;5.10;99.90
7216;DHT22;3649;48.798;9.798;2023-01-20T04:00:46;5.10;99.90
7216;DHT22;3649;48.798;9.798;2023-01-20T04:03:36;5.10;99.90
7216;DHT22;3649;48.798;9.798;2023-01-20T04:06:07;5.10;99.90
7216;DHT22;3649;48.798;9.798;2023-01-20T04:08:42;5.10;99.90
7216;DHT22;3649;48.798;9.798;2023-01-20T04:11:09;5.10;99.90
7216;DHT22;3649;48.798;9.798;2023-01-20T04:13:36;5.10;99.90
7216;DHT22;3649;48.798;9.798;2023-01-20T04:16:10;5.00;99.90
7216;DHT22;3649;48.798;9.798;2023-01-20T04:18:45;5.10;99.90
7216;DHT22;3649;48.798;9.798;2023-01-20T04:21:34;5.00;99.90
7216;DHT22;3649;48.798;9.798;2023-01-20T04:24:13;5.00;99.90
7216;DHT22;3649;48.798;9.798;2023-01-20T04:26:40;4.90;99.90
7216;DHT22;3649;48.798;9.798;2023-01-20T04:29:07;4.80;99.90
7216;DHT22;3649;48.798;9.798;2023-01-20T04:31:38;6.50;99.90
7216;DHT22;3649;48.798;9.798;2023-01-20T04:34:05;5.00;99.90
7216;DHT22;3649;48.798;9.798;2023-01-20T04:36:32;5.10;99.90
7216;DHT22;3649;48.798;9.798;2023-01-20T04:38:59;5.20;99.90
7216;DHT22;3649;48.798;9.798;2023-01-20T04:41:26;5.70;99.90
7216;DHT22;3649;48.798;9.798;2023-01-20T04:43:52;5.30;99.90
7216;DHT22;3649;48.798;9.798;2023-01-20T04:46:19;5.10;99.90
7216;DHT22;3649;48.798;9.798;2023-01-20T04:48:46;5.20;99.90
7216;DHT22;3649;48.798;9.798;2023-01-20T04:51:14;5.20;99.90
7216;DHT22;3649;48.798;9.798;2023-01-20T04:53:41;5.10;99.90
7216;DHT22;3649;48.798;9.798;2023-01-20T04:56:12;5.10;99.90
7216;DHT22;3649;48.798;9.798;2023-01-20T04:58:40;5.00;99.90
7216;DHT22;3649;48.798;9.798;2023-01-20T05:01:07;5.00;99.90
7216;DHT22;3649;48.798;9.798;2023-01-20T05:03:35;5.10;99.90
7216;DHT22;3649;48.798;9.798;2023-01-20T05:06:02;5.10;99.90
7216;DHT22;3649;48.798;9.798;2023-01-20T05:08:29;5.10;99.90
7216;DHT22;3649;48.798;9.798;2023-01-20T05:10:56;5.20;99.90
7216;DHT22;3649;48.798;9.798;2023-01-20T05:13:23;5.10;99.90
7216;DHT22;3649;48.798;9.798;2023-01-20T05:15:49;5.10;99.90
7216;DHT22;3649;48.798;9.798;2023-01-20T05:18:16;5.20;99.90
7216;DHT22;3649;48.798;9.798;2023-01-20T05:20:45;5.00;99.90
7216;DHT22;3649;48.798;9.798;2023-01-20T05:23:12;5.10;99.90
7216;DHT22;3649;48.798;9.798;2023-01-20T05:25:39;5.00;99.90
7216;DHT22;3649;48.798;9.798;2023-01-20T05:28:06;5.00;99.90
7216;DHT22;3649;48.798;9.798;2023-01-20T05:30:34;5.00;99.90
7216;DHT22;3649;48.798;9.798;2023-01-20T05:33:01;4.90;99.90
7216;DHT22;3649;48.798;9.798;2023-01-20T05:35:29;5.10;99.90
7216;DHT22;3649;48.798;9.798;2023-01-20T05:37:55;5.10;99.90
7216;DHT22;3649;48.798;9.798;2023-01-20T05:40:22;5.10;99.90
7216;DHT22;3649;48.798;9.798;2023-01-20T05:42:49;5.00;99.90
7216;DHT22;3649;48.798;9.798;2023-01-20T05:45:16;5.10;99.90
7216;DHT22;3649;48.798;9.798;2023-01-20T05:47:43;5.10;99.90
7216;DHT22;3649;48.798;9.798;2023-01-20T05:50:10;5.10;99.90
7216;DHT22;3649;48.798;9.798;2023-01-20T05:52:37;5.10;99.90
7216;DHT22;3649;48.798;9.798;2023-01-20T05:55:04;5.10;99.90
7216;DHT22;3649;48.798;9.798;2023-01-20T05:57:31;5.20;99.90
7216;DHT22;3649;48.798;9.798;2023-01-20T05:59:58;5.10;99.90
7216;DHT22;3649;48.798;9.798;2023-01-20T06:02:25;5.10;99.90
7216;DHT22;3649;48.798;9.798;2023-01-20T06:04:51;5.10;99.90
7216;DHT22;3649;48.798;9.798;2023-01-20T06:07:18;5.20;99.90
7216;DHT22;3649;48.798;9.798;2023-01-20T06:09:45;5.10;99.90
7216;DHT22;3649;48.798;9.798;2023-01-20T06:12:12;5.10;99.90
7216;DHT22;3649;48.798;9.798;2023-01-20T06:14:38;5.00;99.90
7216;DHT22;3649;48.798;9.798;2023-01-20T06:17:05;5.00;99.90
7216;DHT22;3649;48.798;9.798;2023-01-20T06:19:32;5.10;99.90
7216;DHT22;3649;48.798;9.798;2023-01-20T06:21:59;5.20;99.90
7216;DHT22;3649;48.798;9.798;2023-01-20T06:24:25;5.20;99.90
7216;DHT22;3649;48.798;9.798;2023-01-20T06:26:52;5.20;99.90
7216;DHT22;3649;48.798;9.798;2023-01-20T06:29:19;5.20;99.90
7216;DHT22;3649;48.798;9.798;2023-01-20T06:31:46;5.10;99.90
7216;DHT22;3649;48.798;9.798;2023-01-20T06:34:13;5.10;99.90
7216;DHT22;3649;48.798;9.798;2023-01-20T06:36:40;5.50;99.90
7216;DHT22;3649;48.798;9.798;2023-01-20T06:39:07;5.10;99.90
7216;DHT22;3649;48.798;9.798;2023-01-20T06:41:34;5.10;99.90
7216;DHT22;3649;48.798;9.798;2023-01-20T06:44:01;5.10;99.90
7216;DHT22;3649;48.798;9.798;2023-01-20T06:46:27;5.20;99.90
7216;DHT22;3649;48.798;9.798;2023-01-20T06:48:54;6.50;99.90
7216;DHT22;3649;48.798;9.798;2023-01-20T06:51:28;5.20;99.90
7216;DHT22;3649;48.798;9.798;2023-01-20T06:53:56;5.20;99.90
7216;DHT22;3649;48.798;9.798;2023-01-20T06:56:23;4.20;99.90
7216;DHT22;3649;48.798;9.798;2023-01-20T06:58:50;5.20;99.90
7216;DHT22;3649;48.798;9.798;2023-01-20T07:01:21;5.20;99.90
7216;DHT22;3649;48.798;9.798;2023-01-20T07:03:49;5.10;99.90
7216;DHT22;3649;48.798;9.798;2023-01-20T07:06:23;5.10;99.90
7216;DHT22;3649;48.798;9.798;2023-01-20T07:08:50;5.10;99.90
7216;DHT22;3649;48.798;9.798;2023-01-20T07:11:17;5.10;99.90
7216;DHT22;3649;48.798;9.798;2023-01-20T07:13:44;5.80;99.90
7216;DHT22;3649;48.798;9.798;2023-01-20T07:16:12;5.20;99.90
7216;DHT22;3649;48.798;9.798;2023-01-20T07:18:42;5.20;99.90
7216;DHT22;3649;48.798;9.798;2023-01-20T07:21:12;5.30;99.90
7216;DHT22;3649;48.798;9.798;2023-01-20T07:23:39;5.30;99.90
7216;DHT22;3649;48.798;9.798;2023-01-20T07:26:08;5.20;99.90
7216;DHT22;3649;48.798;9.798;2023-01-20T07:28:36;5.20;99.90
7216;DHT22;3649;48.798;9.798;2023-01-20T07:31:05;5.30;99.90
7216;DHT22;3649;48.798;9.798;2023-01-20T07:33:32;5.20;99.90
7216;DHT22;3649;48.798;9.798;2023-01-20T07:36:00;5.30;99.90
7216;DHT22;3649;48.798;9.798;2023-01-20T07:38:28;5.30;99.90
7216;DHT22;3649;48.798;9.798;2023-01-20T07:40:59;5.30;99.90
7216;DHT22;3649;48.798;9.798;2023-01-20T07:43:29;5.40;99.90
7216;DHT22;3649;48.798;9.798;2023-01-20T07:45:57;5.50;99.90
7216;DHT22;3649;48.798;9.798;2023-01-20T07:48:29;5.50;99.90
7216;DHT22;3649;48.798;9.798;2023-01-20T07:50:58;5.40;99.90
7216;DHT22;3649;48.798;9.798;2023-01-20T07:53:29;4.20;99.90
7216;DHT22;3649;48.798;9.798;2023-01-20T07:55:59;5.50;99.90
7216;DHT22;3649;48.798;9.798;2023-01-20T07:58:28;5.50;99.90
7216;DHT22;3649;48.798;9.798;2023-01-20T08:00:55;6.70;99.90
7216;DHT22;3649;48.798;9.798;2023-01-20T08:03:22;5.40;99.90
7216;DHT22;3649;48.798;9.798;2023-01-20T08:05:52;5.30;99.90
7216;DHT22;3649;48.798;9.798;2023-01-20T08:08:19;5.30;99.90
7216;DHT22;3649;48.798;9.798;2023-01-20T08:10:52;5.40;99.90
7216;DHT22;3649;48.798;9.798;2023-01-20T08:13:19;5.50;99.90
7216;DHT22;3649;48.798;9.798;2023-01-20T08:15:46;5.50;99.90
7216;DHT22;3649;48.798;9.798;2023-01-20T08:18:13;5.40;99.90
7216;DHT22;3649;48.798;9.798;2023-01-20T08:20:40;5.40;99.90
7216;DHT22;3649;48.798;9.798;2023-01-20T08:23:07;5.40;99.90
7216;DHT22;3649;48.798;9.798;2023-01-20T08:25:33;5.40;99.90
7216;DHT22;3649;48.798;9.798;2023-01-20T08:28:00;5.50;99.90
7216;DHT22;3649;48.798;9.798;2023-01-20T08:30:29;5.50;99.90
7216;DHT22;3649;48.798;9.798;2023-01-20T08:32:56;5.40;99.90
7216;DHT22;3649;48.798;9.798;2023-01-20T08:35:23;5.40;99.90
7216;DHT22;3649;48.798;9.798;2023-01-20T08:37:50;5.50;99.90
7216;DHT22;3649;48.798;9.798;2023-01-20T08:40:18;5.40;99.90
7216;DHT22;3649;48.798;9.798;2023-01-20T08:42:44;5.50;99.90
7216;DHT22;3649;48.798;9.798;2023-01-20T08:45:12;5.50;99.90
7216;DHT22;3649;48.798;9.798;2023-01-20T08:47:41;5.40;99.90
7216;DHT22;3649;48.798;9.798;2023-01-20T08:50:13;5.50;99.90
7216;DHT22;3649;48.798;9.798;2023-01-20T08:52:41;5.60;99.90
7216;DHT22;3649;48.798;9.798;2023-01-20T08:55:08;5.60;99.90
7216;DHT22;3649;48.798;9.798;2023-01-20T08:57:39;5.60;99.90
7216;DHT22;3649;48.798;9.798;2023-01-20T09:00:07;5.70;99.90
7216;DHT22;3649;48.798;9.798;2023-01-20T09:02:36;5.70;99.90
7216;DHT22;3649;48.798;9.798;2023-01-20T09:05:04;5.70;99.90
7216;DHT22;3649;48.798;9.798;2023-01-20T09:07:31;5.60;99.90
7216;DHT22;3649;48.798;9.798;2023-01-20T09:09:58;5.70;99.90
7216;DHT22;3649;48.798;9.798;2023-01-20T09:12:24;5.70;99.90
7216;DHT22;3649;48.798;9.798;2023-01-20T09:14:51;5.70;99.90
7216;DHT22;3649;48.798;9.798;2023-01-20T09:17:21;5.80;99.90
7216;DHT22;3649;48.798;9.798;2023-01-20T09:19:48;5.90;99.90
7216;DHT22;3649;48.798;9.798;2023-01-20T09:22:15;5.90;99.90
7216;DHT22;3649;48.798;9.798;2023-01-20T09:24:42;5.80;99.90
7216;DHT22;3649;48.798;9.798;2023-01-20T09:27:09;5.80;99.90
7216;DHT22;3649;48.798;9.798;2023-01-20T09:29:35;5.80;99.90
7216;DHT22;3649;48.798;9.798;2023-01-20T09:32:02;5.90;99.90
7216;DHT22;3649;48.798;9.798;2023-01-20T09:34:29;5.90;99.90
7216;DHT22;3649;48.798;9.798;2023-01-20T09:36:58;6.00;99.90
7216;DHT22;3649;48.798;9.798;2023-01-20T09:39:44;6.00;99.90
7216;DHT22;3649;48.798;9.798;2023-01-20T09:46:07;6.10;99.90
7216;DHT22;3649;48.798;9.798;2023-01-20T09:48:56;6.10;99.90
7216;DHT22;3649;48.798;9.798;2023-01-20T09:54:55;6.00;99.90
7216;DHT22;3649;48.798;9.798;2023-01-20T09:57:26;6.00;99.90
7216;DHT22;3649;48.798;9.798;2023-01-20T10:00:03;6.00;99.90
7216;DHT22;3649;48.798;9.798;2023-01-20T10:02:34;6.00;99.90
7216;DHT22;3649;48.798;9.798;2023-01-20T10:05:10;6.00;99.90
7216;DHT22;3649;48.798;9.798;2023-01-20T10:07:57;6.00;99.90
7216;DHT22;3649;48.798;9.798;2023-01-20T10:10:35;5.90;99.90
7216;DHT22;3649;48.798;9.798;2023-01-20T10:13:17;6.00;99.90
7216;DHT22;3649;48.798;9.798;2023-01-20T10:15:52;6.00;99.90
7216;DHT22;3649;48.798;9.798;2023-01-20T10:18:45;6.00;99.90
7216;DHT22;3649;48.798;9.798;2023-01-20T10:23:56;6.00;99.90
7216;DHT22;3649;48.798;9.798;2023-01-20T10:26:43;6.00;99.90
7216;DHT22;3649;48.798;9.798;2023-01-20T10:29:21;6.00;99.90
7216;DHT22;3649;48.798;9.798;2023-01-20T10:31:58;7.00;99.90
7216;DHT22;3649;48.798;9.798;2023-01-20T10:34:51;6.10;99.90
7216;DHT22;3649;48.798;9.798;2023-01-20T10:37:16;6.00;99.90
7216;DHT22;3649;48.798;9.798;2023-01-20T10:39:59;6.00;99.90
7216;DHT22;3649;48.798;9.798;2023-01-20T10:42:29;6.00;99.90
7216;DHT22;3649;48.798;9.798;2023-01-20T10:44:57;6.00;99.90
7216;DHT22;3649;48.798;9.798;2023-01-20T10:47:38;6.10;99.90
7216;DHT22;3649;48.798;9.798;2023-01-20T10:55:45;6.10;99.90
7216;DHT22;3649;48.798;9.798;2023-01-20T10:58:45;6.10;99.90
7216;DHT22;3649;48.798;9.798;2023-01-20T11:01:15;6.10;99.90
7216;DHT22;3649;48.798;9.798;2023-01-20T11:03:45;6.10;99.90
7216;DHT22;3649;48.798;9.798;2023-01-20T11:06:24;6.00;99.90
7216;DHT22;3649;48.798;9.798;2023-01-20T11:08:53;6.00;99.90
7216;DHT22;3649;48.798;9.798;2023-01-20T11:11:23;6.00;99.90
7216;DHT22;3649;48.798;9.798;2023-01-20T11:13:51;6.10;99.90
7216;DHT22;3649;48.798;9.798;2023-01-20T11:16:21;6.10;99.90
7216;DHT22;3649;48.798;9.798;2023-01-20T11:21:24;6.20;99.90
7216;DHT22;3649;48.798;9.798;2023-01-20T11:23:52;6.20;99.90
7216;DHT22;3649;48.798;9.798;2023-01-20T11:31:38;6.30;99.90
7216;DHT22;3649;48.798;9.798;2023-01-20T11:36:49;6.40;99.90
7216;DHT22;3649;48.798;9.798;2023-01-20T11:39:34;6.40;99.90
7216;DHT22;3649;48.798;9.798;2023-01-20T11:44:54;6.30;99.90
7216;DHT22;3649;48.798;9.798;2023-01-20T11:47:33;6.40;99.90
7216;DHT22;3649;48.798;9.798;2023-01-20T11:55:08;6.40;99.90
7216;DHT22;3649;48.798;9.798;2023-01-20T11:57:37;6.40;99.90
7216;DHT22;3649;48.798;9.798;2023-01-20T12:00:29;6.50;99.90
7216;DHT22;3649;48.798;9.798;2023-01-20T12:03:24;6.60;99.90
7216;DHT22;3649;48.798;9.798;2023-01-20T12:06:06;6.70;99.90
7216;DHT22;3649;48.798;9.798;2023-01-20T12:09:02;6.70;99.90
7216;DHT22;3649;48.798;9.798;2023-01-20T12:11:38;6.60;99.90
7216;DHT22;3649;48.798;9.798;2023-01-20T12:20:10;6.60;99.90
7216;DHT22;3649;48.798;9.798;2023-01-20T12:22:49;6.60;99.90
7216;DHT22;3649;48.798;9.798;2023-01-20T12:25:45;6.60;99.90
7216;DHT22;3649;48.798;9.798;2023-01-20T12:28:18;6.60;99.90
7216;DHT22;3649;48.798;9.798;2023-01-20T12:30:59;6.60;99.90
7216;DHT22;3649;48.798;9.798;2023-01-20T12:33:44;6.60;99.90
7216;DHT22;3649;48.798;9.798;2023-01-20T12:39:19;6.60;99.90
7216;DHT22;3649;48.798;9.798;2023-01-20T12:56:05;6.70;99.90
7216;DHT22;3649;48.798;9.798;2023-01-20T13:01:18;6.70;99.90
7216;DHT22;3649;48.798;9.798;2023-01-20T13:20:34;6.70;99.90
7216;DHT22;3649;48.798;9.798;2023-01-20T13:23:04;6.70;99.90
7216;DHT22;3649;48.798;9.798;2023-01-20T13:25:33;6.70;99.90
7216;DHT22;3649;48.798;9.798;2023-01-20T13:28:00;6.70;99.90
7216;DHT22;3649;48.798;9.798;2023-01-20T13:30:42;6.70;99.90
7216;DHT22;3649;48.798;9.798;2023-01-20T13:33:35;6.80;99.90
7216;DHT22;3649;48.798;9.798;2023-01-20T13:36:22;6.80;99.90
7216;DHT22;3649;48.798;9.798;2023-01-20T13:41:54;6.80;99.90
7216;DHT22;3649;48.798;9.798;2023-01-20T13:44:39;6.80;99.90
7216;DHT22;3649;48.798;9.798;2023-01-20T13:47:09;6.90;99.90
7216;DHT22;3649;48.798;9.798;2023-01-20T13:52:09;6.90;99.90
7216;DHT22;3649;48.798;9.798;2023-01-20T13:54:42;6.80;99.90
7216;DHT22;3649;48.798;9.798;2023-01-20T13:59:54;6.90;99.90
7216;DHT22;3649;48.798;9.798;2023-01-20T14:02:23;7.00;99.90
7216;DHT22;3649;48.798;9.798;2023-01-20T14:04:56;7.00;99.90
7216;DHT22;3649;48.798;9.798;2023-01-20T14:07:26;7.00;99.90
7216;DHT22;3649;48.798;9.798;2023-01-20T14:09:58;7.10;99.90
7216;DHT22;3649;48.798;9.798;2023-01-20T14:12:25;7.30;99.90
7216;DHT22;3649;48.798;9.798;2023-01-20T14:14:53;7.10;99.90
7216;DHT22;3649;48.798;9.798;2023-01-20T14:17:22;7.10;99.90
7216;DHT22;3649;48.798;9.798;2023-01-20T14:19:52;7.10;99.90
7216;DHT22;3649;48.798;9.798;2023-01-20T14:22:24;7.10;99.90
7216;DHT22;3649;48.798;9.798;2023-01-20T14:24:53;8.40;99.90
7216;DHT22;3649;48.798;9.798;2023-01-20T14:27:26;7.00;99.90
7216;DHT22;3649;48.798;9.798;2023-01-20T14:30:11;6.90;99.90
7216;DHT22;3649;48.798;9.798;2023-01-20T14:32:39;7.00;99.90
7216;DHT22;3649;48.798;9.798;2023-01-20T14:37:41;7.00;99.90
7216;DHT22;3649;48.798;9.798;2023-01-20T14:42:40;7.00;99.90
7216;DHT22;3649;48.798;9.798;2023-01-20T14:45:19;7.00;99.90
7216;DHT22;3649;48.798;9.798;2023-01-20T14:47:46;7.00;99.90
7216;DHT22;3649;48.798;9.798;2023-01-20T14:50:15;6.90;99.90
7216;DHT22;3649;48.798;9.798;2023-01-20T14:52:43;6.80;99.90
7216;DHT22;3649;48.798;9.798;2023-01-20T14:55:31;6.90;99.90
7216;DHT22;3649;48.798;9.798;2023-01-20T14:58:05;6.90;99.90
7216;DHT22;3649;48.798;9.798;2023-01-20T15:00:33;6.90;99.90
7216;DHT22;3649;48.798;9.798;2023-01-20T15:03:17;6.90;99.90
7216;DHT22;3649;48.798;9.798;2023-01-20T15:16:28;6.70;99.90
7216;DHT22;3649;48.798;9.798;2023-01-20T15:21:41;6.60;99.90
7216;DHT22;3649;48.798;9.798;2023-01-20T15:24:30;6.70;99.90
7216;DHT22;3649;48.798;9.798;2023-01-20T15:26:59;6.60;99.90
7216;DHT22;3649;48.798;9.798;2023-01-20T15:29:37;6.50;99.90
7216;DHT22;3649;48.798;9.798;2023-01-20T15:32:11;6.50;99.90
7216;DHT22;3649;48.798;9.798;2023-01-20T15:34:37;6.50;99.90
7216;DHT22;3649;48.798;9.798;2023-01-20T15:37:16;6.50;99.90
7216;DHT22;3649;48.798;9.798;2023-01-20T15:39:46;6.50;99.90
7216;DHT22;3649;48.798;9.798;2023-01-20T15:42:13;6.50;99.90
7216;DHT22;3649;48.798;9.798;2023-01-20T15:44:40;6.50;99.90
7216;DHT22;3649;48.798;9.798;2023-01-20T15:47:19;6.50;99.90
7216;DHT22;3649;48.798;9.798;2023-01-20T15:49:49;6.50;99.90
7216;DHT22;3649;48.798;9.798;2023-01-20T15:52:16;6.40;99.90
7216;DHT22;3649;48.798;9.798;2023-01-20T15:54:43;6.40;99.90
7216;DHT22;3649;48.798;9.798;2023-01-20T15:57:14;6.40;99.90
7216;DHT22;3649;48.798;9.798;2023-01-20T15:59:42;6.30;99.90
7216;DHT22;3649;48.798;9.798;2023-01-20T16:02:18;6.30;99.90
7216;DHT22;3649;48.798;9.798;2023-01-20T16:04:45;6.30;99.90
7216;DHT22;3649;48.798;9.798;2023-01-20T16:07:17;6.30;99.90
7216;DHT22;3649;48.798;9.798;2023-01-20T16:09:44;6.30;99.90
7216;DHT22;3649;48.798;9.798;2023-01-20T16:12:13;6.30;99.90
7216;DHT22;3649;48.798;9.798;2023-01-20T16:14:41;6.30;99.90
7216;DHT22;3649;48.798;9.798;2023-01-20T16:17:18;6.40;99.90
7216;DHT22;3649;48.798;9.798;2023-01-20T16:19:49;6.40;99.90
7216;DHT22;3649;48.798;9.798;2023-01-20T16:22:15;6.30;99.90
7216;DHT22;3649;48.798;9.798;2023-01-20T16:24:42;6.40;99.90
7216;DHT22;3649;48.798;9.798;2023-01-20T16:27:19;6.40;99.90
7216;DHT22;3649;48.798;9.798;2023-01-20T16:29:47;6.30;99.90
7216;DHT22;3649;48.798;9.798;2023-01-20T16:32:14;6.30;99.90
7216;DHT22;3649;48.798;9.798;2023-01-20T16:34:47;6.20;99.90
7216;DHT22;3649;48.798;9.798;2023-01-20T16:37:14;6.10;99.90
7216;DHT22;3649;48.798;9.798;2023-01-20T16:39:40;6.10;99.90
7216;DHT22;3649;48.798;9.798;2023-01-20T16:42:12;6.10;99.90
7216;DHT22;3649;48.798;9.798;2023-01-20T16:44:39;6.10;99.90
7216;DHT22;3649;48.798;9.798;2023-01-20T16:47:06;6.10;99.90
7216;DHT22;3649;48.798;9.798;2023-01-20T16:49:33;7.80;99.90
7216;DHT22;3649;48.798;9.798;2023-01-20T16:52:00;6.20;99.90
7216;DHT22;3649;48.798;9.798;2023-01-20T16:54:27;6.50;99.90
7216;DHT22;3649;48.798;9.798;2023-01-20T16:56:54;7.20;99.90
7216;DHT22;3649;48.798;9.798;2023-01-20T16:59:21;6.00;99.90
7216;DHT22;3649;48.798;9.798;2023-01-20T17:01:48;5.90;99.90
7216;DHT22;3649;48.798;9.798;2023-01-20T17:04:15;6.80;99.90
7216;DHT22;3649;48.798;9.798;2023-01-20T17:06:42;5.80;99.90
7216;DHT22;3649;48.798;9.798;2023-01-20T17:09:09;5.80;99.90
7216;DHT22;3649;48.798;9.798;2023-01-20T17:11:37;5.80;99.90
7216;DHT22;3649;48.798;9.798;2023-01-20T17:14:08;5.70;99.90
7216;DHT22;3649;48.798;9.798;2023-01-20T17:16:36;5.60;99.90
7216;DHT22;3649;48.798;9.798;2023-01-20T17:19:04;5.60;99.90
7216;DHT22;3649;48.798;9.798;2023-01-20T17:21:33;5.60;99.90
7216;DHT22;3649;48.798;9.798;2023-01-20T17:24:02;5.60;99.90
7216;DHT22;3649;48.798;9.798;2023-01-20T17:26:29;6.00;99.90
7216;DHT22;3649;48.798;9.798;2023-01-20T17:28:59;5.60;99.90
7216;DHT22;3649;48.798;9.798;2023-01-20T17:31:27;5.60;99.90
7216;DHT22;3649;48.798;9.798;2023-01-20T17:33:54;5.70;99.90
7216;DHT22;3649;48.798;9.798;2023-01-20T17:36:21;5.60;99.90
7216;DHT22;3649;48.798;9.798;2023-01-20T17:38:48;5.60;99.90
7216;DHT22;3649;48.798;9.798;2023-01-20T17:41:15;6.00;99.90
7216;DHT22;3649;48.798;9.798;2023-01-20T17:43:43;5.60;99.90
7216;DHT22;3649;48.798;9.798;2023-01-20T17:48:38;5.50;99.90
7216;DHT22;3649;48.798;9.798;2023-01-20T17:51:15;5.80;99.90
7216;DHT22;3649;48.798;9.798;2023-01-20T17:53:42;5.50;99.90
7216;DHT22;3649;48.798;9.798;2023-01-20T17:56:10;5.60;99.90
7216;DHT22;3649;48.798;9.798;2023-01-20T17:58:43;5.50;99.90
7216;DHT22;3649;48.798;9.798;2023-01-20T18:01:11;5.50;99.90
7216;DHT22;3649;48.798;9.798;2023-01-20T18:03:39;5.50;99.90
7216;DHT22;3649;48.798;9.798;2023-01-20T18:06:10;5.50;99.90
7216;DHT22;3649;48.798;9.798;2023-01-20T18:08:37;5.50;99.90
7216;DHT22;3649;48.798;9.798;2023-01-20T18:11:13;5.50;99.90
7216;DHT22;3649;48.798;9.798;2023-01-20T18:13:45;5.50;99.90
7216;DHT22;3649;48.798;9.798;2023-01-20T18:16:17;5.40;99.90
7216;DHT22;3649;48.798;9.798;2023-01-20T18:18:45;5.40;99.90
7216;DHT22;3649;48.798;9.798;2023-01-20T18:21:15;5.40;99.90
7216;DHT22;3649;48.798;9.798;2023-01-20T18:23:43;5.30;99.90
7216;DHT22;3649;48.798;9.798;2023-01-20T18:26:11;5.30;99.90
7216;DHT22;3649;48.798;9.798;2023-01-20T18:28:39;5.40;99.90
7216;DHT22;3649;48.798;9.798;2023-01-20T18:31:12;5.30;99.90
7216;DHT22;3649;48.798;9.798;2023-01-20T18:33:41;5.20;99.90
7216;DHT22;3649;48.798;9.798;2023-01-20T18:36:16;5.20;99.90
7216;DHT22;3649;48.798;9.798;2023-01-20T18:38:57;5.20;99.90
7216;DHT22;3649;48.798;9.798;2023-01-20T18:41:26;5.10;99.90
7216;DHT22;3649;48.798;9.798;2023-01-20T18:43:53;5.20;99.90
7216;DHT22;3649;48.798;9.798;2023-01-20T18:46:20;5.10;99.90
7216;DHT22;3649;48.798;9.798;2023-01-20T18:48:46;5.10;99.90
7216;DHT22;3649;48.798;9.798;2023-01-20T18:51:16;5.20;99.90
7216;DHT22;3649;48.798;9.798;2023-01-20T18:53:44;5.20;99.90
7216;DHT22;3649;48.798;9.798;2023-01-20T18:56:13;5.10;99.90
7216;DHT22;3649;48.798;9.798;2023-01-20T18:58:41;5.10;99.90